createdAt,value
2023-03-23T16:01:33.818Z,4.70
2023-03-23T16:06:36.767Z,4.82
2023-03-23T16:11:38.977Z,4.63
2023-03-23T16:16:51.103Z,4.78
2023-03-23T16:21:53.488Z,4.40
2023-03-23T16:26:55.988Z,3.93
2023-03-23T16:31:58.331Z,4.10
2023-03-23T16:37:00.700Z,4.03
2023-03-23T16:42:03.232Z,4.18
2023-03-23T16:47:05.410Z,4.12
2023-03-23T16:52:07.723Z,3.77
2023-03-23T16:57:11.553Z,3.97
2023-03-23T17:02:13.840Z,4.00
2023-03-23T17:07:16.454Z,3.83
2023-03-23T17:12:18.791Z,4.35
2023-03-23T17:17:21.166Z,4.10
2023-03-23T17:22:24.262Z,4.47
2023-03-23T17:27:26.505Z,4.30
2023-03-23T17:32:28.789Z,4.55
2023-03-23T17:37:31.569Z,4.30
2023-03-23T17:42:33.938Z,4.67
2023-03-23T17:47:36.311Z,4.30
2023-03-23T17:52:38.546Z,4.63
2023-03-23T17:57:41.402Z,5.57
2023-03-23T18:02:44.295Z,5.10
2023-03-23T18:07:46.619Z,6.03
2023-03-23T18:12:51.236Z,6.47
2023-03-23T18:17:53.607Z,5.90
2023-03-23T18:22:56.253Z,6.70
2023-03-23T18:27:58.448Z,6.50
2023-03-23T18:33:07.988Z,5.40
2023-03-23T18:38:11.437Z,6.22
2023-03-23T18:43:13.728Z,6.00
2023-03-23T18:48:16.030Z,6.20
2023-03-23T18:53:19.123Z,6.82
2023-03-23T18:58:22.086Z,6.60
2023-03-23T19:03:24.763Z,6.70
2023-03-23T19:08:29.051Z,6.73
2023-03-23T19:13:37.576Z,7.45
2023-03-23T19:18:41.507Z,6.90
2023-03-23T19:23:43.844Z,6.40
2023-03-23T19:29:21.490Z,7.70
2023-03-23T19:34:08.838Z,8.07
2023-03-23T19:39:11.336Z,7.97
2023-03-23T19:44:13.925Z,8.85
2023-03-23T19:49:16.393Z,9.10
2023-03-23T19:54:19.131Z,10.18
2023-03-23T19:59:21.403Z,9.13
2023-03-23T20:04:24.989Z,9.43
2023-03-23T20:09:27.548Z,9.85
2023-03-23T20:14:30.423Z,8.20
2023-03-23T20:19:32.683Z,8.98
2023-03-23T20:24:34.858Z,8.87
2023-03-23T20:29:37.139Z,9.40
2023-03-23T20:34:39.409Z,8.90
2023-03-23T20:39:42.292Z,9.40
2023-03-23T20:44:44.784Z,8.82
2023-03-23T20:49:53.265Z,10.23
2023-03-23T20:54:56.316Z,11.00
2023-03-23T20:59:58.773Z,9.63
2023-03-23T21:05:05.081Z,15.53
2023-03-23T21:10:07.334Z,9.32
2023-03-23T21:15:10.189Z,8.60
2023-03-23T21:20:13.138Z,8.73
2023-03-23T21:25:15.506Z,8.52
2023-03-23T21:30:19.176Z,8.13
2023-03-23T21:35:21.589Z,8.38
2023-03-23T21:40:24.110Z,8.10
2023-03-23T21:45:27.046Z,8.45
2023-03-23T21:50:30.064Z,8.82
2023-03-23T21:55:33.642Z,8.17
2023-03-23T22:00:35.896Z,9.15
2023-03-23T22:05:40.317Z,10.07
2023-03-23T22:10:43.552Z,9.80
2023-03-23T22:16:05.663Z,9.73
2023-03-23T22:21:08.273Z,9.50
2023-03-23T22:26:12.173Z,9.38
2023-03-23T22:31:18.655Z,9.00
2023-03-23T22:36:22.810Z,9.88
2023-03-23T22:41:28.656Z,10.32
2023-03-23T22:46:31.553Z,9.50
2023-03-23T22:51:33.797Z,10.80
2023-03-23T22:56:37.465Z,10.60
2023-03-23T23:01:39.826Z,11.63
2023-03-23T23:06:42.104Z,11.40
2023-03-23T23:11:44.318Z,10.93
2023-03-23T23:16:47.459Z,12.18
2023-03-23T23:21:50.444Z,10.97
2023-03-23T23:26:53.317Z,14.57
2023-03-23T23:31:55.941Z,15.32
2023-03-23T23:36:59.644Z,14.63
2023-03-23T23:42:01.858Z,15.10
2023-03-23T23:47:04.867Z,14.80
2023-03-23T23:52:08.737Z,14.05
2023-03-23T23:57:11.068Z,13.98
